createdAt,value
2022-12-15T00:01:17.293Z,95698.16
2022-12-15T00:03:43.813Z,95696.75
2022-12-15T00:06:10.317Z,95697.13
2022-12-15T00:08:36.667Z,95705.59
2022-12-15T00:11:03.090Z,95704.31
2022-12-15T00:13:30.038Z,95703.72
2022-12-15T00:15:56.824Z,95709.25
2022-12-15T00:18:23.303Z,95706.88
2022-12-15T00:20:49.693Z,95709.47
2022-12-15T00:23:16.064Z,95704.75
2022-12-15T00:25:42.513Z,95712.28
2022-12-15T00:28:08.928Z,95708.78
2022-12-15T00:30:35.303Z,95700.91
2022-12-15T00:33:01.677Z,95701.34
2022-12-15T00:35:28.006Z,95704.94
2022-12-15T00:37:54.359Z,95702.72
2022-12-15T00:40:23.470Z,95706.63
2022-12-15T00:42:49.915Z,95692.00
2022-12-15T00:45:16.333Z,95680.69
2022-12-15T00:47:42.660Z,95672.34
2022-12-15T00:50:09.134Z,95660.94
2022-12-15T00:52:35.496Z,95653.50
2022-12-15T00:55:01.887Z,95652.44
2022-12-15T00:57:28.320Z,95660.13
2022-12-15T00:59:54.708Z,95673.09
2022-12-15T01:02:21.301Z,95673.59
2022-12-15T01:04:47.893Z,95692.63
2022-12-15T01:07:14.295Z,95683.94
2022-12-15T01:09:40.719Z,95688.84
2022-12-15T01:12:10.166Z,95684.75
2022-12-15T01:14:36.537Z,95679.03
2022-12-15T01:17:03.095Z,95682.50
2022-12-15T01:19:29.458Z,95693.19
2022-12-15T01:21:58.929Z,95707.69
2022-12-15T01:24:32.650Z,95703.41
2022-12-15T01:26:59.019Z,95713.50
2022-12-15T01:29:25.979Z,95710.19
2022-12-15T01:31:53.894Z,95703.31
2022-12-15T01:34:20.507Z,95706.97
2022-12-15T01:36:46.968Z,95713.97
2022-12-15T01:39:13.387Z,95719.16
2022-12-15T01:41:39.760Z,95730.16
2022-12-15T01:44:06.158Z,95731.84
2022-12-15T01:46:32.587Z,95732.38
2022-12-15T01:48:59.009Z,95738.50
2022-12-15T01:51:25.362Z,95739.00
2022-12-15T01:53:51.756Z,95743.44
2022-12-15T01:56:18.967Z,95740.13
2022-12-15T01:58:45.319Z,95721.22
2022-12-15T02:01:11.716Z,95714.88
2022-12-15T02:03:40.946Z,95710.84
2022-12-15T02:06:07.495Z,95721.66
2022-12-15T02:08:33.856Z,95720.53
2022-12-15T02:11:00.206Z,95725.44
2022-12-15T02:13:26.683Z,95710.28
2022-12-15T02:15:53.191Z,95712.16
2022-12-15T02:18:19.695Z,95706.81
2022-12-15T02:20:46.279Z,95709.19
2022-12-15T02:23:12.663Z,95707.28
2022-12-15T02:25:39.189Z,95710.56
2022-12-15T02:28:05.737Z,95699.22
2022-12-15T02:30:32.126Z,95700.66
2022-12-15T02:32:58.481Z,95692.63
2022-12-15T02:35:24.795Z,95689.56
2022-12-15T02:37:51.148Z,95690.00
2022-12-15T02:40:17.892Z,95694.09
2022-12-15T02:42:44.257Z,95690.56
2022-12-15T02:45:10.645Z,95699.41
2022-12-15T02:47:36.971Z,95696.50
2022-12-15T02:50:03.316Z,95691.31
2022-12-15T02:52:29.669Z,95688.28
2022-12-15T02:54:56.054Z,95681.41
2022-12-15T02:57:22.399Z,95696.91
2022-12-15T02:59:48.743Z,95693.94
2022-12-15T03:02:15.271Z,95685.72
2022-12-15T03:04:42.806Z,95687.34
2022-12-15T03:07:09.198Z,95683.25
2022-12-15T03:09:37.682Z,95684.75
2022-12-15T03:12:05.916Z,95680.44
2022-12-15T03:14:32.558Z,95683.25
2022-12-15T03:16:58.985Z,95683.91
2022-12-15T03:19:25.533Z,95677.75
2022-12-15T03:21:51.957Z,95681.63
2022-12-15T03:24:18.352Z,95686.13
2022-12-15T03:26:44.720Z,95692.69
2022-12-15T03:29:11.137Z,95686.09
2022-12-15T03:31:37.624Z,95688.59
2022-12-15T03:34:03.992Z,95691.69
2022-12-15T03:36:30.340Z,95689.69
2022-12-15T03:38:56.741Z,95686.47
2022-12-15T03:41:23.097Z,95683.59
2022-12-15T03:43:49.845Z,95686.00
2022-12-15T03:46:18.776Z,95678.97
2022-12-15T03:48:45.401Z,95680.59
2022-12-15T03:51:11.735Z,95677.91
2022-12-15T03:53:38.075Z,95677.06
2022-12-15T03:56:05.460Z,95679.06
2022-12-15T03:58:32.027Z,95679.28
2022-12-15T04:00:58.401Z,95673.75
2022-12-15T04:03:24.854Z,95668.06
2022-12-15T04:05:51.272Z,95658.81
2022-12-15T04:08:18.694Z,95656.34
2022-12-15T04:10:45.027Z,95660.84
2022-12-15T04:13:11.869Z,95665.63
2022-12-15T04:15:41.404Z,95664.03
2022-12-15T04:18:07.762Z,95672.88
2022-12-15T04:20:34.160Z,95665.88
2022-12-15T04:23:00.695Z,95661.78
2022-12-15T04:25:27.137Z,95656.66
2022-12-15T04:27:58.386Z,95659.13
2022-12-15T04:30:27.670Z,95657.88
2022-12-15T04:32:54.057Z,95654.75
2022-12-15T04:35:20.425Z,95650.25
2022-12-15T04:37:46.948Z,95641.34
2022-12-15T04:40:13.331Z,95647.06
2022-12-15T04:42:39.876Z,95643.34
2022-12-15T04:45:06.260Z,95647.13
2022-12-15T04:50:14.273Z,95654.09
2022-12-15T04:52:41.377Z,95657.59
2022-12-15T04:55:07.753Z,95661.47
2022-12-15T04:57:34.090Z,95668.88
2022-12-15T05:00:00.451Z,95658.56
2022-12-15T05:02:26.920Z,95639.78
2022-12-15T05:04:53.369Z,95641.44
2022-12-15T05:07:19.722Z,95643.31
2022-12-15T05:09:46.080Z,95639.00
2022-12-15T05:12:12.596Z,95636.31
2022-12-15T05:14:38.981Z,95638.31
2022-12-15T05:17:05.426Z,95640.78
2022-12-15T05:19:31.780Z,95634.84
2022-12-15T05:21:58.179Z,95631.94
2022-12-15T05:24:24.625Z,95638.31
2022-12-15T05:26:53.244Z,95627.28
2022-12-15T05:32:00.510Z,95620.06
2022-12-15T05:34:26.924Z,95621.94
2022-12-15T05:36:53.314Z,95617.03
2022-12-15T05:39:19.699Z,95616.28
2022-12-15T05:41:46.105Z,95616.47
2022-12-15T05:44:12.442Z,95617.69
2022-12-15T05:46:38.805Z,95613.41
2022-12-15T05:49:05.178Z,95613.19
2022-12-15T05:51:31.502Z,95618.06
2022-12-15T05:53:58.055Z,95624.22
2022-12-15T05:56:24.426Z,95629.78
2022-12-15T05:58:50.803Z,95633.69
2022-12-15T06:01:17.544Z,95630.22
2022-12-15T06:03:44.013Z,95634.38
2022-12-15T06:06:14.030Z,95626.56
2022-12-15T06:08:41.405Z,95622.03
2022-12-15T06:13:49.573Z,95619.75
2022-12-15T06:16:16.022Z,95622.13
2022-12-15T06:21:22.908Z,95613.69
2022-12-15T06:23:57.464Z,95607.31
2022-12-15T06:26:23.884Z,95591.50
2022-12-15T06:29:05.124Z,95583.28
2022-12-15T06:31:31.752Z,95594.09
2022-12-15T06:36:40.623Z,95611.13
2022-12-15T06:39:07.174Z,95624.88
2022-12-15T06:41:33.606Z,95626.31
2022-12-15T06:44:00.078Z,95638.81
2022-12-15T06:46:26.608Z,95654.50
2022-12-15T06:48:53.188Z,95664.38
2022-12-15T06:51:19.705Z,95665.41
2022-12-15T06:53:46.273Z,95662.50
2022-12-15T06:56:12.746Z,95659.03
2022-12-15T06:58:39.178Z,95659.03
2022-12-15T07:01:05.738Z,95660.63
2022-12-15T07:03:32.473Z,95670.69
2022-12-15T07:06:11.395Z,95691.00
2022-12-15T07:08:41.351Z,95709.03
2022-12-15T07:11:08.260Z,95702.06
2022-12-15T07:13:34.835Z,95704.34
2022-12-15T07:16:06.998Z,95702.13
2022-12-15T07:18:33.426Z,95702.06
2022-12-15T07:21:02.011Z,95702.06
2022-12-15T07:23:52.670Z,95713.84
2022-12-15T07:26:21.475Z,95702.81
2022-12-15T07:28:47.938Z,95712.13
2022-12-15T07:31:14.398Z,95719.34
2022-12-15T07:33:47.864Z,95721.53
2022-12-15T07:36:14.317Z,95728.31
2022-12-15T07:38:42.929Z,95729.09
2022-12-15T07:41:09.466Z,95721.03
2022-12-15T07:43:36.591Z,95723.72
2022-12-15T07:46:11.227Z,95711.38
2022-12-15T07:48:37.913Z,95704.16
2022-12-15T07:51:10.907Z,95702.34
2022-12-15T07:53:41.935Z,95693.59
2022-12-15T07:56:11.348Z,95683.13
2022-12-15T07:58:37.836Z,95668.72
2022-12-15T08:01:04.392Z,95654.25
2022-12-15T08:03:31.296Z,95647.00
2022-12-15T08:06:03.869Z,95651.91
2022-12-15T08:08:30.916Z,95651.06
2022-12-15T08:10:57.664Z,95674.34
2022-12-15T08:14:00.225Z,95679.31
2022-12-15T08:16:12.870Z,95675.00
2022-12-15T08:18:40.299Z,95666.56
2022-12-15T08:23:54.784Z,95675.97
2022-12-15T08:26:29.785Z,95697.50
2022-12-15T08:28:57.128Z,95707.31
2022-12-15T08:31:27.109Z,95718.66
2022-12-15T08:33:53.612Z,95721.72
2022-12-15T08:36:28.456Z,95720.47
2022-12-15T08:38:55.017Z,95721.28
2022-12-15T08:41:23.847Z,95714.06
2022-12-15T08:43:50.464Z,95713.41
2022-12-15T08:49:02.160Z,95722.97
2022-12-15T08:51:28.526Z,95722.28
2022-12-15T08:53:54.934Z,95728.25
2022-12-15T08:56:22.278Z,95728.84
2022-12-15T08:58:57.680Z,95710.72
2022-12-15T09:01:24.438Z,95713.19
2022-12-15T09:03:51.165Z,95710.28
2022-12-15T09:06:17.679Z,95718.88
2022-12-15T09:08:44.172Z,95714.13
2022-12-15T09:11:15.066Z,95727.06
2022-12-15T09:13:41.494Z,95722.28
2022-12-15T09:16:10.013Z,95722.91
2022-12-15T09:18:37.094Z,95722.44
2022-12-15T09:21:03.618Z,95722.22
2022-12-15T09:23:35.474Z,95712.31
2022-12-15T09:28:42.709Z,95698.75
2022-12-15T09:31:16.803Z,95689.31
2022-12-15T09:33:47.330Z,95700.47
2022-12-15T09:36:22.560Z,95704.31
2022-12-15T09:38:48.972Z,95705.72
2022-12-15T09:41:16.604Z,95711.22
2022-12-15T09:43:47.127Z,95707.50
2022-12-15T09:46:14.075Z,95704.38
2022-12-15T09:48:40.592Z,95697.97
2022-12-15T09:51:07.018Z,95693.44
2022-12-15T09:53:57.424Z,95684.81
2022-12-15T09:56:19.878Z,95683.19
2022-12-15T09:58:48.832Z,95672.50
2022-12-15T10:01:17.172Z,95671.31
2022-12-15T10:03:43.737Z,95675.97
2022-12-15T10:06:20.045Z,95674.78
2022-12-15T10:08:50.843Z,95680.53
2022-12-15T10:11:18.433Z,95676.78
2022-12-15T10:13:44.931Z,95669.13
2022-12-15T10:16:11.751Z,95665.03
2022-12-15T10:18:38.273Z,95658.97
2022-12-15T10:21:04.684Z,95657.81
2022-12-15T10:23:31.452Z,95648.91
2022-12-15T10:25:58.365Z,95637.75
2022-12-15T10:28:24.808Z,95638.09
2022-12-15T10:30:51.410Z,95633.19
2022-12-15T10:33:18.042Z,95633.34
2022-12-15T10:35:44.598Z,95632.66
2022-12-15T10:38:23.341Z,95631.38
2022-12-15T10:40:52.845Z,95625.56
2022-12-15T10:43:19.367Z,95615.66
2022-12-15T10:45:45.917Z,95600.28
2022-12-15T10:48:12.312Z,95595.53
2022-12-15T10:50:38.775Z,95596.72
2022-12-15T10:53:05.283Z,95604.53
2022-12-15T10:55:31.852Z,95596.59
2022-12-15T10:57:58.210Z,95592.06
2022-12-15T11:00:24.660Z,95585.41
2022-12-15T11:02:51.509Z,95574.28
2022-12-15T11:05:20.828Z,95571.34
2022-12-15T11:07:47.570Z,95566.56
2022-12-15T11:10:15.107Z,95550.75
2022-12-15T11:12:41.635Z,95546.78
2022-12-15T11:15:08.175Z,95539.56
2022-12-15T11:17:34.665Z,95541.19
2022-12-15T11:20:03.099Z,95534.81
2022-12-15T11:22:29.962Z,95530.50
2022-12-15T11:24:57.741Z,95513.50
2022-12-15T11:27:24.466Z,95507.66
2022-12-15T11:29:50.906Z,95510.69
2022-12-15T11:32:17.389Z,95501.59
2022-12-15T11:35:02.008Z,95495.44
2022-12-15T11:37:34.237Z,95487.97
2022-12-15T11:40:09.259Z,95494.50
2022-12-15T11:42:38.698Z,95489.72
2022-12-15T11:45:11.317Z,95488.22
2022-12-15T11:47:39.908Z,95487.75
2022-12-15T11:50:06.463Z,95483.44
2022-12-15T11:52:32.969Z,95480.28
2022-12-15T11:57:39.779Z,95482.47
2022-12-15T12:00:06.221Z,95475.75
2022-12-15T12:02:32.881Z,95483.88
2022-12-15T12:04:59.555Z,95474.56
2022-12-15T12:07:26.181Z,95458.63
2022-12-15T12:09:52.720Z,95453.56
2022-12-15T12:12:19.289Z,95446.13
2022-12-15T12:14:45.827Z,95442.06
2022-12-15T12:17:17.190Z,95436.47
2022-12-15T12:19:43.575Z,95434.59
2022-12-15T12:22:10.008Z,95422.22
2022-12-15T12:24:48.918Z,95422.03
2022-12-15T12:27:24.438Z,95417.22
2022-12-15T12:29:50.918Z,95406.28
2022-12-15T12:32:17.386Z,95400.91
2022-12-15T12:34:43.988Z,95399.75
2022-12-15T12:37:10.493Z,95404.63
2022-12-15T12:39:36.952Z,95396.59
2022-12-15T12:42:04.308Z,95392.06
2022-12-15T12:44:30.951Z,95388.78
2022-12-15T12:46:57.732Z,95398.72
2022-12-15T12:49:26.703Z,95400.59
2022-12-15T12:51:53.558Z,95390.91
2022-12-15T12:54:22.228Z,95390.06
2022-12-15T12:56:50.640Z,95389.28
2022-12-15T12:59:17.172Z,95388.47
2022-12-15T13:01:43.775Z,95388.94
2022-12-15T13:04:10.264Z,95384.28
2022-12-15T13:06:36.708Z,95392.00
2022-12-15T13:09:04.411Z,95383.38
2022-12-15T13:11:30.980Z,95380.13
2022-12-15T13:13:57.396Z,95384.44
2022-12-15T13:16:25.236Z,95388.47
2022-12-15T13:21:38.907Z,95393.72
2022-12-15T13:24:05.365Z,95391.03
2022-12-15T13:26:31.913Z,95393.47
2022-12-15T13:28:58.409Z,95390.56
2022-12-15T13:31:25.171Z,95390.56
2022-12-15T13:33:51.846Z,95388.13
2022-12-15T13:36:18.331Z,95386.72
2022-12-15T13:38:46.146Z,95376.25
2022-12-15T13:41:17.158Z,95379.75
2022-12-15T13:43:43.615Z,95372.53
2022-12-15T13:46:10.194Z,95364.50
2022-12-15T13:48:36.784Z,95361.00
2022-12-15T13:51:03.475Z,95365.53
2022-12-15T13:53:29.912Z,95363.94
2022-12-15T13:55:56.434Z,95362.53
2022-12-15T13:58:22.984Z,95357.41
2022-12-15T14:00:53.725Z,95352.06
2022-12-15T14:03:20.300Z,95339.69
2022-12-15T14:05:46.750Z,95339.47
2022-12-15T14:08:13.289Z,95345.63
2022-12-15T14:10:39.826Z,95332.22
2022-12-15T14:13:15.465Z,95331.44
2022-12-15T14:15:42.767Z,95320.94
2022-12-15T14:18:09.203Z,95333.88
2022-12-15T14:20:35.591Z,95329.00
2022-12-15T14:23:02.022Z,95326.06
2022-12-15T14:25:28.433Z,95328.75
2022-12-15T14:27:54.869Z,95330.38
2022-12-15T14:30:21.309Z,95331.66
2022-12-15T14:32:47.836Z,95339.94
2022-12-15T14:35:17.019Z,95342.63
2022-12-15T14:37:43.467Z,95356.59
2022-12-15T14:40:09.931Z,95354.06
2022-12-15T14:42:36.366Z,95352.97
2022-12-15T14:45:02.776Z,95364.28
2022-12-15T14:47:29.324Z,95361.63
2022-12-15T14:49:55.744Z,95375.00
2022-12-15T14:52:23.367Z,95379.31
2022-12-15T14:54:49.851Z,95383.03
2022-12-15T14:57:16.238Z,95383.28
2022-12-15T14:59:42.671Z,95389.44
2022-12-15T15:02:09.405Z,95389.22
2022-12-15T15:04:35.900Z,95391.31
2022-12-15T15:07:02.289Z,95395.84
2022-12-15T15:09:28.710Z,95395.28
2022-12-15T15:11:55.093Z,95392.38
2022-12-15T15:14:21.531Z,95389.69
2022-12-15T15:16:48.097Z,95391.19
2022-12-15T15:19:15.820Z,95391.78
2022-12-15T15:21:42.248Z,95381.31
2022-12-15T15:24:08.695Z,95379.44
2022-12-15T15:26:35.231Z,95378.06
2022-12-15T15:29:08.496Z,95369.69
2022-12-15T15:31:41.055Z,95364.34
2022-12-15T15:34:08.372Z,95354.66
2022-12-15T15:36:35.101Z,95359.44
2022-12-15T15:39:02.662Z,95341.16
2022-12-15T15:41:29.073Z,95328.84
2022-12-15T15:43:55.570Z,95329.53
2022-12-15T15:46:27.376Z,95333.72
2022-12-15T15:48:54.489Z,95326.53
2022-12-15T15:51:22.246Z,95324.66
2022-12-15T15:53:48.718Z,95324.09
2022-12-15T15:56:16.548Z,95317.91
2022-12-15T15:58:43.690Z,95308.16
2022-12-15T16:01:14.519Z,95304.69
2022-12-15T16:03:41.138Z,95294.88
2022-12-15T16:06:09.605Z,95292.75
2022-12-15T16:08:41.894Z,95286.59
2022-12-15T16:11:10.916Z,95275.06
2022-12-15T16:13:37.362Z,95266.22
2022-12-15T16:16:04.034Z,95262.75
2022-12-15T16:18:31.837Z,95268.09
2022-12-15T16:21:00.411Z,95275.31
2022-12-15T16:23:26.831Z,95281.75
2022-12-15T16:25:54.015Z,95285.22
2022-12-15T16:28:20.598Z,95293.81
2022-12-15T16:30:47.164Z,95293.00
2022-12-15T16:33:15.396Z,95296.50
2022-12-15T16:35:42.074Z,95305.00
2022-12-15T16:38:08.549Z,95307.44
2022-12-15T16:40:34.983Z,95312.56
2022-12-15T16:43:04.889Z,95312.00
2022-12-15T16:45:33.020Z,95306.28
2022-12-15T16:47:59.525Z,95305.47
2022-12-15T16:50:28.313Z,95312.72
2022-12-15T16:52:54.693Z,95308.94
2022-12-15T16:55:21.168Z,95300.69
2022-12-15T16:57:55.169Z,95308.50
2022-12-15T17:00:21.625Z,95309.31
2022-12-15T17:02:48.186Z,95316.31
2022-12-15T17:05:16.812Z,95323.50
2022-12-15T17:07:43.262Z,95325.84
2022-12-15T17:10:12.661Z,95332.59
2022-12-15T17:12:46.596Z,95333.88
2022-12-15T17:15:12.909Z,95332.00
2022-12-15T17:17:39.466Z,95328.53
2022-12-15T17:22:52.370Z,95329.84
2022-12-15T17:25:27.388Z,95328.44
2022-12-15T17:28:04.172Z,95323.66
2022-12-15T17:30:30.513Z,95325.84
2022-12-15T17:32:56.924Z,95312.03
2022-12-15T17:35:23.421Z,95302.69
2022-12-15T17:37:49.852Z,95291.19
2022-12-15T17:40:16.410Z,95294.66
2022-12-15T17:42:43.842Z,95287.47
2022-12-15T17:45:10.284Z,95288.25
2022-12-15T17:47:36.717Z,95288.75
2022-12-15T17:50:07.175Z,95286.88
2022-12-15T17:52:33.576Z,95286.88
2022-12-15T17:55:00.006Z,95293.84
2022-12-15T17:57:26.384Z,95313.41
2022-12-15T17:59:53.225Z,95322.50
2022-12-15T18:02:19.704Z,95316.06
2022-12-15T18:04:46.264Z,95322.00
2022-12-15T18:07:12.650Z,95327.13
2022-12-15T18:09:40.395Z,95324.47
2022-12-15T18:12:06.921Z,95330.28
2022-12-15T18:14:33.331Z,95329.44
2022-12-15T18:17:09.319Z,95338.88
2022-12-15T18:22:18.927Z,95334.13
2022-12-15T18:24:45.279Z,95341.91
2022-12-15T18:27:17.721Z,95331.56
2022-12-15T18:29:44.139Z,95332.13
2022-12-15T18:32:10.551Z,95337.72
2022-12-15T18:34:36.943Z,95342.84
2022-12-15T18:37:03.394Z,95333.75
2022-12-15T18:39:29.849Z,95334.56
2022-12-15T18:41:56.313Z,95332.97
2022-12-15T18:44:22.754Z,95327.84
2022-12-15T18:46:55.107Z,95331.22
2022-12-15T18:49:21.917Z,95325.66
2022-12-15T18:51:48.258Z,95325.41
2022-12-15T18:54:29.385Z,95330.75
2022-12-15T18:56:58.337Z,95336.13
2022-12-15T18:59:24.813Z,95338.19
2022-12-15T19:01:56.230Z,95332.84
2022-12-15T19:04:22.693Z,95337.41
2022-12-15T19:06:49.087Z,95345.44
2022-12-15T19:09:15.450Z,95345.66
2022-12-15T19:11:41.815Z,95346.25
2022-12-15T19:14:08.176Z,95349.84
2022-12-15T19:16:35.087Z,95345.06
2022-12-15T19:19:01.549Z,95355.31
2022-12-15T19:21:28.020Z,95364.41
2022-12-15T19:23:54.518Z,95361.72
2022-12-15T19:26:20.892Z,95374.03
2022-12-15T19:28:54.551Z,95375.66
2022-12-15T19:31:21.082Z,95375.66
2022-12-15T19:33:47.535Z,95378.34
2022-12-15T19:36:13.938Z,95381.03
2022-12-15T19:38:40.355Z,95377.53
2022-12-15T19:41:06.751Z,95382.91
2022-12-15T19:43:36.768Z,95374.28
2022-12-15T19:46:03.559Z,95367.88
2022-12-15T19:48:30.087Z,95372.66
2022-12-15T19:50:56.472Z,95368.13
2022-12-15T19:53:22.844Z,95367.56
2022-12-15T19:55:49.281Z,95368.34
2022-12-15T19:58:15.629Z,95371.84
2022-12-15T20:00:42.102Z,95370.22
2022-12-15T20:03:08.566Z,95368.59
2022-12-15T20:05:35.099Z,95369.63
2022-12-15T20:08:12.439Z,95369.88
2022-12-15T20:10:38.849Z,95371.16
2022-12-15T20:13:05.335Z,95376.72
2022-12-15T20:15:31.689Z,95374.06
2022-12-15T20:17:58.183Z,95370.81
2022-12-15T20:20:28.041Z,95371.16
2022-12-15T20:22:54.504Z,95378.72
2022-12-15T20:25:20.855Z,95374.41
2022-12-15T20:27:47.234Z,95377.91
2022-12-15T20:30:16.478Z,95383.03
2022-12-15T20:32:44.176Z,95385.72
2022-12-15T20:35:10.713Z,95388.16
2022-12-15T20:37:38.042Z,95393.25
2022-12-15T20:40:04.425Z,95391.38
2022-12-15T20:42:30.781Z,95384.66
2022-12-15T20:44:57.168Z,95390.03
2022-12-15T20:47:23.650Z,95396.16
2022-12-15T20:49:52.925Z,95386.75
2022-12-15T20:52:19.354Z,95395.81
2022-12-15T20:57:36.166Z,95398.50
2022-12-15T21:00:02.564Z,95400.13
2022-12-15T21:05:20.009Z,95391.75
2022-12-15T21:07:46.338Z,95390.38
2022-12-15T21:10:12.759Z,95401.06
2022-12-15T21:12:39.410Z,95404.31
2022-12-15T21:15:08.227Z,95404.91
2022-12-15T21:17:38.692Z,95405.94
2022-12-15T21:20:10.470Z,95417.22
2022-12-15T21:22:37.091Z,95418.28
2022-12-15T21:25:06.187Z,95419.88
2022-12-15T21:27:32.654Z,95419.09
2022-12-15T21:29:59.032Z,95412.69
2022-12-15T21:32:25.534Z,95417.22
2022-12-15T21:34:55.778Z,95416.78
2022-12-15T21:37:24.714Z,95412.22
2022-12-15T21:39:51.866Z,95410.13
2022-12-15T21:42:19.141Z,95414.66
2022-12-15T21:44:45.553Z,95415.13
2022-12-15T21:47:11.935Z,95426.31
2022-12-15T21:49:39.820Z,95431.44
2022-12-15T21:52:18.474Z,95438.19
2022-12-15T21:54:48.666Z,95437.13
2022-12-15T21:57:15.176Z,95448.41
2022-12-15T21:59:41.568Z,95447.59
2022-12-15T22:02:09.558Z,95453.16
2022-12-15T22:04:36.078Z,95457.50
2022-12-15T22:07:08.363Z,95453.78
2022-12-15T22:09:34.885Z,95452.69
2022-12-15T22:12:04.185Z,95450.03
2022-12-15T22:17:12.020Z,95471.44
2022-12-15T22:19:38.489Z,95473.69
2022-12-15T22:22:07.062Z,95466.69
2022-12-15T22:24:34.450Z,95462.13
2022-12-15T22:27:01.060Z,95452.84
2022-12-15T22:29:27.455Z,95443.75
2022-12-15T22:31:55.024Z,95450.41
2022-12-15T22:34:21.594Z,95447.25
2022-12-15T22:36:48.093Z,95441.91
2022-12-15T22:39:14.687Z,95445.03
2022-12-15T22:41:41.156Z,95453.06
2022-12-15T22:44:07.627Z,95457.34
2022-12-15T22:46:34.571Z,95458.41
2022-12-15T22:49:01.045Z,95465.97
2022-12-15T22:51:27.691Z,95465.50
2022-12-15T22:53:54.136Z,95472.50
2022-12-15T22:56:21.299Z,95475.41
2022-12-15T22:58:47.710Z,95479.69
2022-12-15T23:01:19.346Z,95480.31
2022-12-15T23:03:46.773Z,95482.97
2022-12-15T23:06:15.668Z,95490.78
2022-12-15T23:08:42.452Z,95481.94
2022-12-15T23:11:09.226Z,95484.47
2022-12-15T23:13:35.704Z,95483.69
2022-12-15T23:16:05.423Z,95479.59
2022-12-15T23:18:32.559Z,95491.00
2022-12-15T23:20:58.931Z,95481.66
2022-12-15T23:23:25.315Z,95488.75
2022-12-15T23:25:51.791Z,95484.66
2022-12-15T23:28:18.217Z,95486.78
2022-12-15T23:30:44.642Z,95486.78
2022-12-15T23:33:11.030Z,95485.34
2022-12-15T23:35:37.422Z,95484.66
2022-12-15T23:38:03.953Z,95484.19
2022-12-15T23:40:30.454Z,95486.16
2022-12-15T23:42:56.906Z,95500.84
2022-12-15T23:45:23.354Z,95491.41
2022-12-15T23:47:49.834Z,95496.28
2022-12-15T23:50:16.287Z,95498.47
2022-12-15T23:52:42.774Z,95498.63
2022-12-15T23:55:09.155Z,95503.09
2022-12-15T23:57:35.539Z,95501.34
